DQTAA NFFN-NFFN
Flight info
| Callsign | DQTAA |
|---|---|
| Flight time | N/A |
| Altitude | 8000 |
| Route | NFSW |
| Aircraft | DHC2/L-SDFG/B1 |
Departure
| Time | 2026-05-09 02:11 |
|---|---|
| Airport | Nadi International Airport (NFFN) |
Arrival
| Time | N/A |
|---|---|
| Airport | Nadi International Airport (NFFN) |
| Time | Latitude | Longitude | Altitude | Speed | Heading |
|---|---|---|---|---|---|
| 2026-05-09 02:10 | -17.76059 | 177.42979 | 10 ft | 0 kts | 304° |
| 2026-05-09 02:10 | -17.76040 | 177.42964 | 11 ft | 11 kts | 344° |
| 2026-05-09 02:10 | -17.75892 | 177.42944 | 11 ft | 41 kts | 349° |
| 2026-05-09 02:11 | -17.75490 | 177.42864 | 123 ft | 65 kts | 336° |
| 2026-05-09 02:11 | -17.75066 | 177.42772 | 298 ft | 69 kts | 339° |
| 2026-05-09 02:11 | -17.74580 | 177.42658 | 486 ft | 73 kts | 333° |
| 2026-05-09 02:11 | -17.74107 | 177.42520 | 727 ft | 71 kts | 338° |
| 2026-05-09 02:12 | -17.73623 | 177.42337 | 919 ft | 75 kts | 326° |
| 2026-05-09 02:12 | -17.73155 | 177.41980 | 1024 ft | 90 kts | 316° |
| 2026-05-09 02:12 | -17.72632 | 177.41475 | 1024 ft | 112 kts | 317° |
| 2026-05-09 02:12 | -17.71977 | 177.40906 | 966 ft | 127 kts | 320° |
| 2026-05-09 02:13 | -17.71298 | 177.40318 | 1037 ft | 127 kts | 319° |
| 2026-05-09 02:13 | -17.70609 | 177.39714 | 1024 ft | 132 kts | 319° |
| 2026-05-09 02:13 | -17.69882 | 177.39108 | 1008 ft | 134 kts | 323° |
| 2026-05-09 02:13 | -17.69089 | 177.38579 | 1006 ft | 134 kts | 332° |
| 2026-05-09 02:14 | -17.68218 | 177.38234 | 972 ft | 136 kts | 345° |
| 2026-05-09 02:14 | -17.67270 | 177.38091 | 959 ft | 136 kts | 355° |
| 2026-05-09 02:14 | -17.66332 | 177.38032 | 1013 ft | 131 kts | 355° |
| 2026-05-09 02:14 | -17.65439 | 177.37953 | 1116 ft | 127 kts | 354° |
| 2026-05-09 02:15 | -17.64551 | 177.37849 | 1173 ft | 128 kts | 352° |
| 2026-05-09 02:15 | -17.63658 | 177.37706 | 1205 ft | 130 kts | 349° |
| 2026-05-09 02:15 | -17.62761 | 177.37501 | 1256 ft | 130 kts | 346° |
| 2026-05-09 02:15 | -17.61886 | 177.37270 | 1313 ft | 130 kts | 349° |
| 2026-05-09 02:16 | -17.60968 | 177.37198 | 1311 ft | 133 kts | 357° |
| 2026-05-09 02:16 | -17.60040 | 177.37164 | 1365 ft | 130 kts | 1° |
| 2026-05-09 02:16 | -17.59147 | 177.37180 | 1451 ft | 128 kts | 359° |
| 2026-05-09 02:16 | -17.58244 | 177.37109 | 1504 ft | 129 kts | 352° |
| 2026-05-09 02:17 | -17.57346 | 177.36929 | 1545 ft | 130 kts | 348° |
| 2026-05-09 02:17 | -17.56457 | 177.36743 | 1584 ft | 131 kts | 349° |
| 2026-05-09 02:17 | -17.55544 | 177.36565 | 1621 ft | 131 kts | 351° |
| 2026-05-09 02:17 | -17.54633 | 177.36417 | 1662 ft | 131 kts | 353° |
| 2026-05-09 02:18 | -17.53724 | 177.36314 | 1705 ft | 131 kts | 357° |
| 2026-05-09 02:18 | -17.52801 | 177.36240 | 1756 ft | 131 kts | 356° |
| 2026-05-09 02:18 | -17.51895 | 177.36165 | 1807 ft | 131 kts | 357° |
| 2026-05-09 02:18 | -17.50973 | 177.36085 | 1835 ft | 132 kts | 356° |
| 2026-05-09 02:19 | -17.50027 | 177.36031 | 1784 ft | 137 kts | 0° |
| 2026-05-09 02:19 | -17.49070 | 177.36043 | 1747 ft | 138 kts | 2° |
| 2026-05-09 02:19 | -17.48110 | 177.36069 | 1751 ft | 136 kts | 5° |
| 2026-05-09 02:19 | -17.47167 | 177.36159 | 1758 ft | 135 kts | 7° |
| 2026-05-09 02:20 | -17.46235 | 177.36287 | 1767 ft | 133 kts | 12° |
| 2026-05-09 02:20 | -17.45320 | 177.36494 | 1754 ft | 134 kts | 12° |
| 2026-05-09 02:20 | -17.44386 | 177.36500 | 1716 ft | 138 kts | 351° |
| 2026-05-09 02:20 | -17.43435 | 177.36266 | 1691 ft | 138 kts | 348° |
| 2026-05-09 02:21 | -17.42499 | 177.36018 | 1720 ft | 136 kts | 347° |
| 2026-05-09 02:21 | -17.41592 | 177.35771 | 1744 ft | 136 kts | 346° |
| 2026-05-09 02:21 | -17.40681 | 177.35471 | 1760 ft | 136 kts | 343° |
| 2026-05-09 02:21 | -17.39776 | 177.35156 | 1773 ft | 136 kts | 343° |
| 2026-05-09 02:22 | -17.38888 | 177.34817 | 1790 ft | 136 kts | 340° |
| 2026-05-09 02:22 | -17.38004 | 177.34436 | 1810 ft | 136 kts | 338° |
| 2026-05-09 02:22 | -17.37129 | 177.34027 | 1824 ft | 137 kts | 335° |
| 2026-05-09 02:22 | -17.36299 | 177.33553 | 1846 ft | 137 kts | 329° |
| 2026-05-09 02:23 | -17.35490 | 177.33009 | 1876 ft | 136 kts | 330° |
| 2026-05-09 02:23 | -17.34607 | 177.32614 | 1840 ft | 138 kts | 342° |
| 2026-05-09 02:23 | -17.33693 | 177.32301 | 1839 ft | 137 kts | 345° |
| 2026-05-09 02:23 | -17.32773 | 177.32085 | 1865 ft | 135 kts | 350° |
| 2026-05-09 02:24 | -17.31854 | 177.31883 | 1909 ft | 133 kts | 349° |
| 2026-05-09 02:24 | -17.30943 | 177.31679 | 1944 ft | 132 kts | 351° |
| 2026-05-09 02:24 | -17.30030 | 177.31526 | 1962 ft | 133 kts | 352° |
| 2026-05-09 02:24 | -17.29099 | 177.31375 | 1972 ft | 134 kts | 354° |
| 2026-05-09 02:25 | -17.28173 | 177.31250 | 1984 ft | 135 kts | 355° |
| 2026-05-09 02:25 | -17.27238 | 177.31134 | 2008 ft | 134 kts | 354° |
| 2026-05-09 02:25 | -17.26309 | 177.30986 | 2043 ft | 134 kts | 353° |
| 2026-05-09 02:25 | -17.25383 | 177.30858 | 2061 ft | 134 kts | 359° |
| 2026-05-09 02:26 | -17.24437 | 177.30841 | 2063 ft | 134 kts | 4° |
| 2026-05-09 02:26 | -17.23515 | 177.30894 | 2094 ft | 132 kts | 6° |
| 2026-05-09 02:26 | -17.22589 | 177.30991 | 2126 ft | 131 kts | 9° |
| 2026-05-09 02:26 | -17.21678 | 177.31070 | 2163 ft | 131 kts | 5° |
| 2026-05-09 02:27 | -17.20758 | 177.31119 | 2197 ft | 131 kts | 3° |
| 2026-05-09 02:27 | -17.19848 | 177.31125 | 2225 ft | 131 kts | 1° |
| 2026-05-09 02:27 | -17.18934 | 177.31094 | 2249 ft | 132 kts | 359° |
| 2026-05-09 02:27 | -17.18011 | 177.31020 | 2270 ft | 133 kts | 354° |
| 2026-05-09 02:28 | -17.17084 | 177.30881 | 2292 ft | 133 kts | 354° |
| 2026-05-09 02:28 | -17.16168 | 177.30763 | 2318 ft | 133 kts | 353° |
| 2026-05-09 02:28 | -17.15253 | 177.30624 | 2339 ft | 133 kts | 355° |
| 2026-05-09 02:28 | -17.14320 | 177.30547 | 2351 ft | 133 kts | 0° |
| 2026-05-09 02:29 | -17.13396 | 177.30667 | 2324 ft | 135 kts | 15° |
| 2026-05-09 02:29 | -17.12476 | 177.30913 | 2336 ft | 133 kts | 17° |
| 2026-05-09 02:29 | -17.11609 | 177.31201 | 2380 ft | 130 kts | 19° |
| 2026-05-09 02:29 | -17.10738 | 177.31497 | 2416 ft | 130 kts | 19° |
| 2026-05-09 02:30 | -17.09869 | 177.31763 | 2434 ft | 131 kts | 11° |
| 2026-05-09 02:30 | -17.08989 | 177.31988 | 2450 ft | 130 kts | 18° |
| 2026-05-09 02:30 | -17.08113 | 177.32271 | 2473 ft | 130 kts | 16° |
| 2026-05-09 02:30 | -17.07243 | 177.32564 | 2502 ft | 130 kts | 22° |
| 2026-05-09 02:31 | -17.06398 | 177.32896 | 2526 ft | 130 kts | 21° |
| 2026-05-09 02:31 | -17.05519 | 177.33197 | 2478 ft | 135 kts | 17° |
| 2026-05-09 02:31 | -17.04577 | 177.33466 | 2341 ft | 142 kts | 17° |
| 2026-05-09 02:31 | -17.03622 | 177.33762 | 2164 ft | 146 kts | 19° |
| 2026-05-09 02:32 | -17.02662 | 177.34143 | 1952 ft | 148 kts | 26° |
| 2026-05-09 02:32 | -17.01689 | 177.34560 | 1678 ft | 151 kts | 25° |
| 2026-05-09 02:32 | -17.00712 | 177.34998 | 1312 ft | 157 kts | 26° |
| 2026-05-09 02:32 | -16.99834 | 177.35376 | 879 ft | 113 kts | 26° |
| 2026-05-09 02:33 | -16.99106 | 177.35673 | 549 ft | 112 kts | 25° |
| 2026-05-09 02:33 | -16.98396 | 177.35963 | 307 ft | 108 kts | 26° |
| 2026-05-09 02:33 | -16.97737 | 177.36250 | 174 ft | 86 kts | 28° |
| 2026-05-09 02:33 | -16.97267 | 177.36488 | 23 ft | 76 kts | 29° |
| 2026-05-09 02:34 | -16.96840 | 177.36728 | 7 ft | 58 kts | 34° |
| 2026-05-09 02:34 | -16.96613 | 177.36870 | 5 ft | 15 kts | 36° |
| 2026-05-09 02:34 | -16.96572 | 177.36908 | 5 ft | 5 kts | 106° |
| 2026-05-09 02:34 | -16.96604 | 177.36937 | 5 ft | 7 kts | 152° |
| 2026-05-09 02:35 | -16.96610 | 177.36977 | 5 ft | 9 kts | 17° |
| 2026-05-09 02:35 | -16.96522 | 177.36963 | 5 ft | 13 kts | 12° |
| 2026-05-09 02:35 | -16.96501 | 177.36999 | 4 ft | 4 kts | 147° |
| 2026-05-09 02:35 | -16.96517 | 177.37007 | 4 ft | 0 kts | 165° |
| 2026-05-09 02:36 | -16.96521 | 177.37007 | 4 ft | 0 kts | 164° |
| 2026-05-09 02:36 | -16.96524 | 177.37007 | 4 ft | 0 kts | 163° |
| 2026-05-09 02:36 | -16.96527 | 177.37007 | 4 ft | 0 kts | 163° |
| 2026-05-09 02:36 | -16.96530 | 177.37007 | 4 ft | 0 kts | 162° |
| 2026-05-09 02:37 | -16.96533 | 177.37007 | 4 ft | 0 kts | 161° |
| 2026-05-09 02:37 | -16.96537 | 177.37007 | 4 ft | 0 kts | 160° |